Time;durP1;ratioP1;P1;durP2;ratioP2;P2;SDS_P1;SDS_P2;PMS_P1;PMS_P2;Temp;Humidity;BMP_temperature;BMP_pressure;BME280_temperature;BME280_humidity;BME280_pressure;Samples;Min_cycle;Max_cycle;Signal;HPM_P1;HPM_P2
2023/04/01 00:00:48;;;;;;;1.38;1.27;;;13.90;78.10;;;;;;4884710;29;20056;-89
2023/04/01 00:03:15;;;;;;;1.58;1.30;;;13.80;78.10;;;;;;4878117;29;20044;-88
2023/04/01 00:05:40;;;;;;;1.20;1.08;;;13.90;78.10;;;;;;4916100;29;20032;-88
2023/04/01 00:08:06;;;;;;;1.42;1.25;;;13.80;78.10;;;;;;4868896;29;20032;-88
2023/04/01 00:10:32;;;;;;;1.40;1.30;;;13.80;78.10;;;;;;4890934;29;20036;-88
2023/04/01 00:13:00;;;;;;;1.10;1.00;;;13.80;78.10;;;;;;4920650;29;20040;-88
2023/04/01 00:15:26;;;;;;;1.80;1.30;;;13.80;78.70;;;;;;4887707;29;20518;-88
2023/04/01 00:17:52;;;;;;;1.20;1.10;;;13.80;78.10;;;;;;4902747;29;20039;-88
2023/04/01 00:20:18;;;;;;;1.02;0.90;;;13.80;78.10;;;;;;4900756;29;20043;-87
2023/04/01 00:22:44;;;;;;;1.58;1.10;;;13.80;78.10;;;;;;4901766;29;20032;-88
2023/04/01 00:25:10;;;;;;;2.25;1.38;;;13.80;78.10;;;;;;4884284;29;20508;-87
2023/04/01 00:27:36;;;;;;;1.05;1.00;;;13.80;78.10;;;;;;4884450;29;20066;-88
2023/04/01 00:30:03;;;;;;;1.65;1.30;;;13.80;78.80;;;;;;4890297;29;20067;-88
2023/04/01 00:32:30;;;;;;;1.42;1.00;;;13.80;78.10;;;;;;4884279;29;20039;-87
2023/04/01 00:34:59;;;;;;;1.95;1.25;;;13.70;78.10;;;;;;4886368;29;20024;-89
2023/04/01 00:37:26;;;;;;;1.83;1.25;;;13.70;78.10;;;;;;4899152;29;20377;-87
2023/04/01 00:39:51;;;;;;;1.27;1.10;;;13.70;78.10;;;;;;4900161;29;20127;-88
2023/04/01 00:42:17;;;;;;;1.55;1.20;;;13.70;78.10;;;;;;4884860;29;20126;-89
2023/04/01 00:44:45;;;;;;;1.92;1.10;;;13.70;78.10;;;;;;4884501;29;20056;-87
2023/04/01 00:47:11;;;;;;;1.17;1.15;;;13.70;78.20;;;;;;4899264;29;20092;-88
2023/04/01 00:49:40;;;;;;;1.40;1.10;;;13.70;78.10;;;;;;4868439;29;20037;-89
2023/04/01 00:52:10;;;;;;;1.75;1.23;;;13.70;78.20;;;;;;4901203;29;20028;-88
2023/04/01 00:54:37;;;;;;;1.30;1.20;;;13.70;78.20;;;;;;4887733;29;20067;-87
2023/04/01 00:57:10;;;;;;;1.38;1.20;;;13.70;78.20;;;;;;4903188;29;20036;-87
2023/04/01 00:59:42;;;;;;;1.52;1.40;;;13.70;78.20;;;;;;4888004;29;20024;-88
2023/04/01 01:02:10;;;;;;;1.80;1.30;;;13.70;78.20;;;;;;4901875;29;20039;-88
2023/04/01 01:04:36;;;;;;;1.50;1.40;;;13.70;78.20;;;;;;4901732;29;20017;-87
2023/04/01 01:07:37;;;;;;;1.40;1.30;;;13.70;78.20;;;;;;4902431;29;20032;-88
2023/04/01 01:10:22;;;;;;;1.42;1.33;;;13.70;78.30;;;;;;4915432;29;20031;-89
2023/04/01 01:13:01;;;;;;;1.65;1.25;;;13.60;78.20;;;;;;4901928;29;20116;-85
2023/04/01 01:15:41;;;;;;;1.58;1.48;;;13.70;78.20;;;;;;4901443;29;20541;-88
2023/04/01 01:18:21;;;;;;;1.75;1.63;;;13.60;78.20;;;;;;4907954;29;20024;-89
2023/04/01 01:21:05;;;;;;;1.75;1.50;;;13.60;78.30;;;;;;4896192;29;20028;-88
2023/04/01 01:24:18;;;;;;;2.03;1.70;;;13.60;78.20;;;;;;4914922;29;20070;-89
2023/04/01 01:27:08;;;;;;;2.00;1.75;;;13.60;78.30;;;;;;4871309;29;20083;-86
2023/04/01 01:29:55;;;;;;;1.63;1.52;;;13.60;78.30;;;;;;4899716;29;20111;-87
2023/04/01 01:32:32;;;;;;;3.00;1.92;;;13.60;78.30;;;;;;4885743;29;20040;-86
2023/04/01 01:35:26;;;;;;;2.90;2.08;;;13.60;78.30;;;;;;4887089;29;20055;-88
2023/04/01 01:37:58;;;;;;;2.22;1.90;;;13.50;78.40;;;;;;4900065;29;20055;-87
2023/04/01 01:40:27;;;;;;;2.75;2.00;;;13.60;78.40;;;;;;4901328;29;20447;-87
2023/04/01 01:42:58;;;;;;;2.95;2.50;;;13.50;78.30;;;;;;4885082;29;20084;-87
2023/04/01 01:45:27;;;;;;;2.70;2.17;;;13.50;78.40;;;;;;4901075;29;20036;-87
2023/04/01 01:47:56;;;;;;;2.88;2.22;;;13.50;78.40;;;;;;4899781;29;20060;-86
2023/04/01 01:50:23;;;;;;;3.05;2.50;;;13.60;78.40;;;;;;4870615;29;20036;-87
2023/04/01 01:52:49;;;;;;;3.30;2.50;;;13.50;78.40;;;;;;4886463;29;20024;-86
2023/04/01 01:55:24;;;;;;;2.53;2.33;;;13.50;78.40;;;;;;4890209;29;20426;-87
2023/04/01 01:57:52;;;;;;;2.38;2.17;;;13.50;78.40;;;;;;4916656;29;20056;-87
2023/04/01 02:00:19;;;;;;;4.15;2.30;;;13.50;78.40;;;;;;4885284;29;20360;-87
2023/04/01 02:02:48;;;;;;;3.20;2.63;;;13.50;78.40;;;;;;4900269;29;20496;-87
2023/04/01 02:05:24;;;;;;;2.55;2.33;;;13.50;78.40;;;;;;4885249;29;20036;-89
2023/04/01 02:08:13;;;;;;;2.80;2.50;;;13.50;78.50;;;;;;4900134;29;20119;-86
2023/04/01 02:10:46;;;;;;;2.92;2.28;;;13.50;78.50;;;;;;4897491;29;20107;-89
2023/04/01 02:13:29;;;;;;;2.60;2.40;;;13.50;78.50;;;;;;4898504;29;20028;-88
2023/04/01 02:16:00;;;;;;;2.97;2.47;;;13.50;78.50;;;;;;4903569;29;20067;-89
2023/04/01 02:18:28;;;;;;;2.83;2.40;;;13.50;78.50;;;;;;4911265;29;20032;-88
2023/04/01 02:20:57;;;;;;;3.50;2.58;;;13.50;78.50;;;;;;4889145;29;20033;-87
2023/04/01 02:23:23;;;;;;;3.05;2.40;;;13.50;78.50;;;;;;4917551;29;20134;-89
2023/04/01 02:25:50;;;;;;;2.53;2.20;;;13.50;78.60;;;;;;4888057;29;20546;-88
2023/04/01 02:28:20;;;;;;;2.35;2.15;;;13.50;78.60;;;;;;4899637;29;20493;-90
2023/04/01 02:30:49;;;;;;;4.75;2.75;;;13.50;78.60;;;;;;4899321;29;20028;-87
2023/04/01 02:33:16;;;;;;;2.38;2.17;;;13.50;78.60;;;;;;4913617;29;20040;-89
2023/04/01 02:35:42;;;;;;;2.85;2.40;;;13.50;78.60;;;;;;4898135;29;20043;-89
2023/04/01 02:38:08;;;;;;;3.97;2.38;;;13.50;78.70;;;;;;4883125;29;20028;-89
2023/04/01 02:40:43;;;;;;;3.65;2.55;;;13.50;78.70;;;;;;4881207;29;20033;-88
2023/04/01 02:43:09;;;;;;;3.90;2.47;;;13.50;78.80;;;;;;4899008;29;20107;-88
2023/04/01 02:45:35;;;;;;;2.58;2.13;;;13.40;78.60;;;;;;4916803;29;20461;-89
2023/04/01 02:48:01;;;;;;;2.97;2.15;;;13.40;78.70;;;;;;4892389;29;20052;-88
2023/04/01 02:50:27;;;;;;;3.03;2.35;;;13.50;78.70;;;;;;4898402;29;20704;-88
2023/04/01 02:52:53;;;;;;;3.15;2.50;;;13.50;78.70;;;;;;4894173;29;20114;-87
2023/04/01 02:55:19;;;;;;;3.13;2.38;;;13.40;78.70;;;;;;4853727;29;20033;-88
2023/04/01 02:57:45;;;;;;;4.25;2.58;;;13.40;78.70;;;;;;4889911;29;20041;-89
2023/04/01 03:00:11;;;;;;;3.05;2.22;;;13.40;78.70;;;;;;4877774;29;20033;-88
2023/04/01 03:02:38;;;;;;;2.90;2.20;;;13.40;78.70;;;;;;4893662;29;20036;-88
2023/04/01 03:05:05;;;;;;;3.33;2.60;;;13.40;78.70;;;;;;4873625;29;20028;-88
2023/04/01 03:07:31;;;;;;;3.22;2.20;;;13.40;78.70;;;;;;4889680;29;20040;-89
2023/04/01 03:09:57;;;;;;;3.70;2.20;;;13.40;78.70;;;;;;4867249;29;20029;-86
2023/04/01 03:12:23;;;;;;;2.65;2.20;;;13.40;78.70;;;;;;4865860;29;20040;-88
2023/04/01 03:14:51;;;;;;;3.10;2.33;;;13.40;78.80;;;;;;4882549;29;20036;-88
2023/04/01 03:17:16;;;;;;;2.88;2.30;;;13.40;78.80;;;;;;4887624;29;20035;-87
2023/04/01 03:19:42;;;;;;;2.75;2.20;;;13.40;78.80;;;;;;4863161;29;20493;-88
2023/04/01 03:22:12;;;;;;;2.60;2.08;;;13.40;78.80;;;;;;4869865;29;20040;-87
2023/04/01 03:24:38;;;;;;;2.90;2.22;;;13.40;79.00;;;;;;4904176;29;20044;-88
2023/04/01 03:27:03;;;;;;;2.85;2.10;;;13.30;78.70;;;;;;4883387;29;20040;-87
2023/04/01 03:29:30;;;;;;;3.45;2.28;;;13.40;78.80;;;;;;4885877;29;20556;-88
2023/04/01 03:31:57;;;;;;;2.17;1.98;;;13.40;78.80;;;;;;4882696;29;20048;-87
2023/04/01 03:34:24;;;;;;;3.30;2.40;;;13.40;79.50;;;;;;4884718;29;20089;-87
2023/04/01 03:36:51;;;;;;;3.22;2.15;;;13.40;78.80;;;;;;4885189;29;20052;-90
2023/04/01 03:39:20;;;;;;;3.03;2.05;;;13.30;78.80;;;;;;4889454;29;20048;-88
2023/04/01 03:41:46;;;;;;;2.40;2.10;;;13.30;78.80;;;;;;4854361;29;20039;-88
2023/04/01 03:44:13;;;;;;;2.75;2.28;;;13.30;78.80;;;;;;4907986;29;20031;-88
2023/04/01 03:46:40;;;;;;;1.92;1.83;;;13.40;78.90;;;;;;4893523;29;20044;-88
2023/04/01 03:49:11;;;;;;;2.70;2.05;;;13.40;78.90;;;;;;4866969;29;20092;-89
2023/04/01 03:51:43;;;;;;;2.20;1.98;;;13.30;78.90;;;;;;4886903;29;20133;-88
2023/04/01 03:54:11;;;;;;;2.85;2.15;;;13.30;78.90;;;;;;4916039;29;20039;-88
2023/04/01 03:56:37;;;;;;;2.17;1.98;;;13.30;78.90;;;;;;4897987;29;20365;-87
2023/04/01 03:59:05;;;;;;;2.72;2.17;;;13.30;78.90;;;;;;4899013;29;20039;-89
2023/04/01 04:01:31;;;;;;;2.90;2.28;;;13.30;78.90;;;;;;4883999;29;20024;-88
2023/04/01 04:03:59;;;;;;;3.13;2.20;;;13.30;78.90;;;;;;4901569;29;20032;-87
2023/04/01 04:06:26;;;;;;;2.25;2.00;;;13.30;78.90;;;;;;4885291;29;20016;-88
2023/04/01 04:08:52;;;;;;;2.58;2.00;;;13.30;78.90;;;;;;4898139;29;20032;-87
2023/04/01 04:11:19;;;;;;;2.38;2.10;;;13.30;78.90;;;;;;4867099;29;20028;-88
2023/04/01 04:13:47;;;;;;;3.22;2.22;;;13.30;79.00;;;;;;4897997;29;20092;-88
2023/04/01 04:16:15;;;;;;;3.25;2.30;;;13.30;79.00;;;;;;4897856;29;20124;-87
2023/04/01 04:18:45;;;;;;;2.55;2.10;;;13.30;79.00;;;;;;4893568;29;20028;-88
2023/04/01 04:21:15;;;;;;;2.20;2.00;;;13.30;78.90;;;;;;4903110;29;20039;-89
2023/04/01 04:23:42;;;;;;;2.72;2.20;;;13.30;79.00;;;;;;4884373;29;20053;-89
2023/04/01 04:26:11;;;;;;;3.20;2.38;;;13.30;79.00;;;;;;4909426;29;20039;-89
2023/04/01 04:28:38;;;;;;;2.75;2.38;;;13.20;78.90;;;;;;4901226;29;20031;-88
2023/04/01 04:31:07;;;;;;;2.45;2.08;;;13.20;78.90;;;;;;4888024;29;20032;-89
2023/04/01 04:33:35;;;;;;;2.85;2.40;;;13.20;78.90;;;;;;4897939;29;20522;-88
2023/04/01 04:36:02;;;;;;;2.75;2.35;;;13.30;79.00;;;;;;4915715;29;20067;-89
2023/04/01 04:38:27;;;;;;;2.90;2.45;;;13.20;78.90;;;;;;4889899;29;20056;-88
2023/04/01 04:40:54;;;;;;;3.05;2.30;;;13.20;78.90;;;;;;4904214;29;20047;-88
2023/04/01 04:43:20;;;;;;;2.33;2.13;;;13.20;78.90;;;;;;4902054;29;20033;-89
2023/04/01 04:45:46;;;;;;;3.05;2.45;;;13.20;78.90;;;;;;4887121;29;20441;-88
2023/04/01 04:48:18;;;;;;;2.90;2.35;;;13.20;79.00;;;;;;4892142;29;20052;-89
2023/04/01 04:50:49;;;;;;;2.58;2.22;;;13.20;79.00;;;;;;4883714;29;20557;-87
2023/04/01 04:53:17;;;;;;;3.10;2.40;;;13.20;79.00;;;;;;4910877;29;20484;-88
2023/04/01 04:55:48;;;;;;;2.90;2.60;;;13.20;79.00;;;;;;4908305;29;20438;-89
2023/04/01 04:58:28;;;;;;;3.85;2.80;;;13.20;79.00;;;;;;4905381;29;20035;-88
2023/04/01 05:00:54;;;;;;;3.65;2.60;;;13.20;79.00;;;;;;4887654;29;20357;-90
2023/04/01 05:03:25;;;;;;;3.05;2.70;;;13.10;78.90;;;;;;4871502;29;20687;-88
2023/04/01 05:05:53;;;;;;;3.28;2.78;;;13.20;78.90;;;;;;4881792;29;20032;-89
2023/04/01 05:08:19;;;;;;;3.13;2.53;;;13.20;79.00;;;;;;4901301;29;20056;-89
2023/04/01 05:10:48;;;;;;;3.97;3.05;;;13.20;78.90;;;;;;4871160;29;20032;-88
2023/04/01 05:13:13;;;;;;;4.38;2.90;;;13.10;78.90;;;;;;4890160;29;20119;-89
2023/04/01 05:15:41;;;;;;;3.78;2.60;;;13.20;78.90;;;;;;4886177;29;20028;-88
2023/04/01 05:18:07;;;;;;;3.00;2.63;;;13.20;79.00;;;;;;4885168;29;20389;-89
2023/04/01 05:20:33;;;;;;;2.92;2.60;;;13.10;78.90;;;;;;4872902;29;20036;-89
2023/04/01 05:23:00;;;;;;;4.00;3.05;;;13.10;78.90;;;;;;4901447;29;20040;-89
2023/04/01 05:25:28;;;;;;;4.07;3.13;;;13.10;79.00;;;;;;4898057;29;20028;-89
2023/04/01 05:27:57;;;;;;;3.78;2.92;;;13.10;79.00;;;;;;4883625;29;20049;-90
2023/04/01 05:30:26;;;;;;;3.67;2.90;;;13.10;79.00;;;;;;4886213;29;20047;-87
2023/04/01 05:33:12;;;;;;;3.45;2.85;;;13.10;79.00;;;;;;4903488;29;20342;-90
2023/04/01 05:35:42;;;;;;;3.88;2.88;;;13.10;79.00;;;;;;4892032;29;20028;-89
2023/04/01 05:38:13;;;;;;;3.17;2.63;;;13.10;79.00;;;;;;4904387;29;20051;-94
2023/04/01 05:40:39;;;;;;;4.32;3.33;;;13.10;79.00;;;;;;4870646;29;20492;-90
2023/04/01 05:43:05;;;;;;;3.08;2.78;;;13.10;78.90;;;;;;4887978;29;20021;-90
2023/04/01 05:45:31;;;;;;;4.78;2.92;;;13.10;78.90;;;;;;4901355;29;20410;-91
2023/04/01 05:48:16;;;;;;;3.45;2.90;;;13.10;79.00;;;;;;4903979;29;20082;-89
2023/04/01 05:50:42;;;;;;;3.20;2.72;;;13.10;78.90;;;;;;4884754;29;20051;-90
2023/04/01 05:53:09;;;;;;;4.07;3.25;;;13.10;79.00;;;;;;4885437;29;20047;-91
2023/04/01 05:55:36;;;;;;;3.63;2.95;;;13.10;79.00;;;;;;4905554;29;20032;-96
2023/04/01 05:58:05;;;;;;;4.93;3.38;;;13.10;79.00;;;;;;4901775;29;20032;-91
2023/04/01 06:00:31;;;;;;;4.28;3.40;;;13.10;79.10;;;;;;4900405;29;20097;-94
2023/04/01 06:02:59;;;;;;;4.40;3.20;;;13.00;79.00;;;;;;4888118;29;20028;-91
2023/04/01 06:05:30;;;;;;;3.75;2.80;;;13.10;79.00;;;;;;4884848;29;20033;-92
2023/04/01 06:08:17;;;;;;;4.03;3.13;;;13.10;79.10;;;;;;4921394;29;20032;-92
2023/04/01 06:11:14;;;;;;;3.75;2.90;;;13.10;79.10;;;;;;4901490;29;20589;-90
2023/04/01 06:14:19;;;;;;;3.85;3.00;;;13.00;79.00;;;;;;4895989;29;20549;-91
2023/04/01 06:17:01;;;;;;;3.58;2.83;;;13.00;79.00;;;;;;4919284;29;20111;-92
2023/04/01 06:19:43;;;;;;;3.95;3.10;;;13.00;79.00;;;;;;4893878;29;20032;-90
2023/04/01 06:22:39;;;;;;;3.60;2.85;;;13.00;79.00;;;;;;4900764;29;20168;-90
2023/04/01 06:25:22;;;;;;;4.28;3.17;;;13.00;79.10;;;;;;4914113;29;20032;-89
2023/04/01 06:28:18;;;;;;;3.88;3.10;;;13.00;79.00;;;;;;4886752;29;20034;-89
2023/04/01 06:30:56;;;;;;;4.20;3.05;;;13.00;79.10;;;;;;4909364;29;20063;-91
2023/04/01 06:34:06;;;;;;;3.97;3.15;;;13.00;79.00;;;;;;4915604;29;20067;-89
2023/04/01 06:36:43;;;;;;;4.82;3.33;;;13.00;79.10;;;;;;4887332;29;20032;-88
2023/04/01 06:39:27;;;;;;;4.03;2.88;;;13.00;79.00;;;;;;4880816;29;20230;-89
2023/04/01 06:42:21;;;;;;;4.13;3.15;;;13.00;79.20;;;;;;4899263;29;20046;-88
2023/04/01 06:45:17;;;;;;;4.45;3.33;;;13.00;79.20;;;;;;4894716;29;20032;-89
2023/04/01 06:48:35;;;;;;;3.97;2.97;;;13.00;79.20;;;;;;4845050;29;20050;-88
2023/04/01 06:51:30;;;;;;;4.30;3.00;;;13.00;79.20;;;;;;4879426;29;20640;-89
2023/04/01 06:54:32;;;;;;;4.85;3.15;;;13.00;79.20;;;;;;4891184;29;20085;-88
2023/04/01 06:57:31;;;;;;;5.38;3.25;;;13.00;79.20;;;;;;4895312;29;20527;-88
2023/04/01 07:00:00;;;;;;;4.50;3.22;;;13.00;79.20;;;;;;4894141;29;20456;-89
2023/04/01 07:02:47;;;;;;;4.32;3.00;;;13.00;79.20;;;;;;4873063;29;20147;-89
2023/04/01 07:05:14;;;;;;;3.78;2.78;;;13.00;79.30;;;;;;4877891;29;20032;-88
2023/04/01 07:07:48;;;;;;;4.28;2.83;;;13.00;79.20;;;;;;4880200;29;20281;-88
2023/04/01 07:10:25;;;;;;;3.38;2.53;;;13.00;79.30;;;;;;4897850;29;20037;-89
2023/04/01 07:13:13;;;;;;;;;;;13.00;79.30;;;;;;4878850;29;20042;-89
2023/04/01 07:16:08;;;;;;;2.97;2.20;;;13.00;79.10;;;;;;4867403;29;19972;-89
2023/04/01 07:18:45;;;;;;;3.65;2.58;;;13.00;79.20;;;;;;4874142;29;20036;-89
2023/04/01 07:21:29;;;;;;;3.83;2.58;;;13.00;79.20;;;;;;4865923;29;21257;-90
2023/04/01 07:24:01;;;;;;;3.85;2.65;;;13.00;79.40;;;;;;4866294;29;20177;-90
2023/04/01 07:26:40;;;;;;;3.58;2.58;;;12.90;79.30;;;;;;4871545;29;20029;-88
2023/04/01 07:29:16;;;;;;;3.13;2.65;;;13.00;79.30;;;;;;4857744;29;20074;-88
2023/04/01 07:32:20;;;;;;;3.10;2.25;;;13.00;79.40;;;;;;4889526;29;20037;-89
2023/04/01 07:35:24;;;;;;;2.60;2.10;;;13.00;79.50;;;;;;4889884;29;20033;-90
2023/04/01 07:38:05;;;;;;;3.90;2.08;;;12.90;79.50;;;;;;4862591;29;20553;-91
2023/04/01 07:40:39;;;;;;;3.17;2.17;;;13.00;79.40;;;;;;4875049;29;20021;-87
2023/04/01 07:43:20;;;;;;;2.72;2.00;;;13.00;79.50;;;;;;4890816;29;20042;-91
2023/04/01 07:46:18;;;;;;;2.90;2.03;;;13.00;79.50;;;;;;4894816;29;20048;-92
2023/04/01 07:48:49;;;;;;;2.95;2.15;;;13.00;79.50;;;;;;4915438;29;20067;-91
2023/04/01 07:51:46;;;;;;;3.30;2.30;;;13.00;79.50;;;;;;4911327;29;20020;-92
2023/04/01 07:54:27;;;;;;;3.20;2.25;;;13.00;79.60;;;;;;4913820;29;20028;-90
2023/04/01 07:57:11;;;;;;;2.95;2.20;;;13.00;79.50;;;;;;4916769;29;20095;-91
2023/04/01 08:00:20;;;;;;;3.17;2.28;;;13.00;79.60;;;;;;4899239;29;20069;-89
2023/04/01 08:03:04;;;;;;;2.33;1.80;;;13.00;79.60;;;;;;4900057;29;20049;-93
2023/04/01 08:05:45;;;;;;;2.13;1.90;;;13.10;79.60;;;;;;4914310;29;20080;-94
2023/04/01 08:08:56;;;;;;;2.58;1.98;;;13.10;79.60;;;;;;4917905;29;20039;-91
2023/04/01 08:11:54;;;;;;;2.65;1.90;;;13.10;79.70;;;;;;4884263;29;20096;-91
2023/04/01 08:15:09;;;;;;;2.60;2.08;;;13.10;79.50;;;;;;4866287;29;20049;-91
2023/04/01 08:18:20;;;;;;;2.92;1.83;;;13.10;79.50;;;;;;4917624;29;20040;-92
2023/04/01 08:21:17;;;;;;;2.50;1.70;;;13.10;79.60;;;;;;4887972;29;20024;-93
2023/04/01 08:23:47;;;;;;;2.53;1.83;;;13.10;79.60;;;;;;4903542;29;20127;-91
2023/04/01 08:26:44;;;;;;;2.13;1.92;;;13.10;79.60;;;;;;4893107;29;20027;-92
2023/04/01 08:29:17;;;;;;;2.90;1.70;;;13.10;79.70;;;;;;4887627;29;20032;-91
2023/04/01 08:31:58;;;;;;;2.03;1.80;;;13.20;79.60;;;;;;4897057;29;20029;-92
2023/04/01 08:34:40;;;;;;;2.40;1.80;;;13.10;79.60;;;;;;4903367;29;20111;-94
2023/04/01 08:37:17;;;;;;;2.17;1.58;;;13.20;79.70;;;;;;4902683;29;20027;-91
2023/04/01 08:39:52;;;;;;;2.38;1.83;;;13.20;79.60;;;;;;4898387;29;20056;-91
2023/04/01 08:42:27;;;;;;;2.60;1.90;;;13.20;79.60;;;;;;4916797;29;20500;-92
2023/04/01 08:45:40;;;;;;;2.38;1.90;;;13.20;79.60;;;;;;4902592;29;20032;-90
2023/04/01 08:48:33;;;;;;;2.30;1.65;;;13.30;79.60;;;;;;4900264;29;20075;-91
2023/04/01 08:51:13;;;;;;;1.58;1.30;;;13.30;79.50;;;;;;4901971;29;20119;-92
2023/04/01 08:54:00;;;;;;;1.77;1.58;;;13.30;79.50;;;;;;4902381;29;20060;-92
2023/04/01 08:56:41;;;;;;;1.65;1.55;;;13.30;79.60;;;;;;4883681;29;20036;-90
2023/04/01 08:59:28;;;;;;;1.48;1.30;;;13.30;79.60;;;;;;4914442;29;20024;-91
2023/04/01 09:02:33;;;;;;;1.50;1.40;;;13.30;79.50;;;;;;4901448;29;20052;-90
2023/04/01 09:05:43;;;;;;;1.63;1.50;;;13.30;79.50;;;;;;4899856;29;20028;-91
2023/04/01 09:08:28;;;;;;;1.63;1.50;;;13.40;79.50;;;;;;4916742;29;20118;-92
2023/04/01 09:11:02;;;;;;;1.48;1.35;;;13.40;79.40;;;;;;4919760;29;20078;-91
2023/04/01 09:14:07;;;;;;;1.67;1.48;;;13.40;79.40;;;;;;4894688;29;20041;-89
2023/04/01 09:16:46;;;;;;;1.63;1.50;;;13.40;80.10;;;;;;4901434;29;20504;-93
2023/04/01 09:19:32;;;;;;;1.27;1.17;;;13.40;79.40;;;;;;4885630;29;20480;-92
2023/04/01 09:22:18;;;;;;;1.40;1.30;;;13.40;79.40;;;;;;4903248;29;20031;-94
2023/04/01 09:25:42;;;;;;;1.70;1.40;;;13.50;79.50;;;;;;4908451;29;20238;-92
2023/04/01 09:28:17;;;;;;;1.15;1.10;;;13.50;79.50;;;;;;4885116;29;20095;-93
2023/04/01 09:31:20;;;;;;;1.60;1.50;;;13.50;79.40;;;;;;4882665;29;20104;-91
2023/04/01 09:34:24;;;;;;;1.20;1.10;;;13.50;80.10;;;;;;4900622;29;20095;-92
2023/04/01 09:37:21;;;;;;;1.33;1.23;;;13.50;79.40;;;;;;4892345;29;20028;-92
2023/04/01 09:40:08;;;;;;;1.13;1.10;;;13.50;79.50;;;;;;4904591;29;20028;-93
2023/04/01 09:43:06;;;;;;;1.40;1.30;;;13.60;79.50;;;;;;4894293;29;20092;-93
2023/04/01 09:46:01;;;;;;;1.55;1.33;;;13.60;79.50;;;;;;4901758;29;20016;-93
2023/04/01 09:49:04;;;;;;;1.67;1.55;;;13.60;79.40;;;;;;4915873;29;20032;-94
2023/04/01 09:51:57;;;;;;;1.25;1.15;;;13.60;79.40;;;;;;4897605;29;20172;-92
2023/04/01 09:54:42;;;;;;;1.30;1.20;;;13.70;79.40;;;;;;4894841;29;20361;-91
2023/04/01 09:57:37;;;;;;;1.00;1.00;;;13.70;79.40;;;;;;4894390;29;20032;-92
2023/04/01 10:00:33;;;;;;;1.42;1.30;;;13.70;79.30;;;;;;4917075;29;20067;-92
2023/04/01 10:03:35;;;;;;;1.42;1.30;;;13.70;79.30;;;;;;4903494;29;20044;-91
2023/04/01 10:06:28;;;;;;;1.30;1.20;;;13.70;79.30;;;;;;4861250;29;20127;-91
2023/04/01 10:09:30;;;;;;;1.33;1.20;;;13.70;79.30;;;;;;4915776;29;20220;-91
2023/04/01 10:11:55;;;;;;;1.38;1.27;;;13.80;79.40;;;;;;4882519;29;20035;-88
2023/04/01 10:14:52;;;;;;;1.50;1.40;;;13.80;79.20;;;;;;4900321;29;20032;-91
2023/04/01 10:17:27;;;;;;;1.60;1.35;;;13.80;79.30;;;;;;4882346;29;20056;-95
2023/04/01 10:20:14;;;;;;;1.50;1.38;;;13.80;79.20;;;;;;4902189;29;20150;-92
2023/04/01 10:23:02;;;;;;;1.38;1.27;;;13.80;79.30;;;;;;4901548;29;20028;-90
2023/04/01 10:25:33;;;;;;;1.80;1.63;;;13.80;79.20;;;;;;4885832;29;20294;-94
2023/04/01 10:28:14;;;;;;;2.17;1.30;;;13.80;79.20;;;;;;4898832;29;20036;-92
2023/04/01 10:31:24;;;;;;;2.35;1.58;;;13.90;79.30;;;;;;4897967;29;20047;-91
2023/04/01 10:34:11;;;;;;;1.40;1.30;;;13.90;79.30;;;;;;4900395;29;20060;-92
2023/04/01 10:37:03;;;;;;;1.65;1.40;;;13.90;79.30;;;;;;4911258;29;20028;-92
2023/04/01 10:39:54;;;;;;;1.58;1.48;;;13.90;79.30;;;;;;4885997;29;20070;-93
2023/04/01 10:43:03;;;;;;;2.28;1.40;;;13.90;79.20;;;;;;4899328;29;20095;-91
2023/04/01 10:46:00;;;;;;;1.50;1.40;;;13.90;79.20;;;;;;4903133;29;20025;-89
2023/04/01 10:48:44;;;;;;;1.42;1.33;;;13.90;79.20;;;;;;4911754;29;20044;-93
2023/04/01 10:51:22;;;;;;;1.77;1.40;;;13.90;79.20;;;;;;4900686;29;20047;-91
2023/04/01 10:54:17;;;;;;;1.60;1.45;;;13.90;79.30;;;;;;4899020;29;20032;-91
2023/04/01 10:57:24;;;;;;;1.70;1.60;;;13.90;79.30;;;;;;4918525;29;20114;-92
2023/04/01 11:00:28;;;;;;;1.80;1.60;;;13.90;79.20;;;;;;4904954;29;20080;-92
2023/04/01 11:03:48;;;;;;;2.10;1.67;;;13.90;79.30;;;;;;4909196;29;20123;-94
2023/04/01 11:06:38;;;;;;;2.15;1.70;;;13.90;79.20;;;;;;4915229;29;20382;-91
2023/04/01 11:09:47;;;;;;;2.42;1.83;;;13.90;79.20;;;;;;4884254;29;20070;-91
2023/04/01 11:12:31;;;;;;;2.53;1.88;;;14.00;79.40;;;;;;4909959;29;20512;-91
2023/04/01 11:15:28;;;;;;;2.92;1.90;;;14.00;79.20;;;;;;4898053;29;20039;-90
2023/04/01 11:18:25;;;;;;;1.70;1.52;;;14.00;79.30;;;;;;4893102;29;20175;-90
2023/04/01 11:21:19;;;;;;;2.35;1.80;;;14.00;79.20;;;;;;4880585;29;20082;-93
2023/04/01 11:23:59;;;;;;;2.58;2.00;;;14.00;79.20;;;;;;4899867;29;20032;-93
2023/04/01 11:27:21;;;;;;;2.17;1.77;;;14.10;79.30;;;;;;4907174;29;20028;-92
2023/04/01 11:30:30;;;;;;;2.22;1.80;;;14.00;79.30;;;;;;4888877;29;20032;-93
2023/04/01 11:33:22;;;;;;;2.00;1.70;;;14.00;79.20;;;;;;4897708;29;20466;-90
2023/04/01 11:35:56;;;;;;;2.20;1.80;;;14.10;79.30;;;;;;4918285;29;20027;-92
2023/04/01 11:38:47;;;;;;;2.05;1.77;;;14.10;79.20;;;;;;4894272;29;20043;-92
2023/04/01 11:42:09;;;;;;;2.88;2.00;;;14.10;79.20;;;;;;4846435;29;20039;-93
2023/04/01 11:45:37;;;;;;;2.60;2.10;;;14.10;79.20;;;;;;4853616;29;20030;-92
2023/04/01 11:48:52;;;;;;;2.28;1.90;;;14.20;79.20;;;;;;4881162;29;20045;-93
2023/04/01 11:51:28;;;;;;;2.60;2.00;;;14.20;79.20;;;;;;4875273;29;20050;-91
2023/04/01 11:54:09;;;;;;;2.75;2.00;;;14.20;79.10;;;;;;4893047;29;20040;-93
2023/04/01 11:56:54;;;;;;;2.72;2.15;;;14.20;79.20;;;;;;4885177;29;20033;-91
2023/04/01 11:59:20;;;;;;;;;;;14.30;79.30;;;;;;4913587;29;20389;-94
2023/04/01 12:02:23;;;;;;;2.40;2.05;;;14.20;79.00;;;;;;4904788;29;19913;-90
2023/04/01 12:05:01;;;;;;;2.05;1.73;;;14.20;79.10;;;;;;4907466;29;20028;-90
2023/04/01 12:07:45;;;;;;;2.38;1.80;;;14.20;79.00;;;;;;4881900;29;20024;-89
2023/04/01 12:10:26;;;;;;;2.17;1.63;;;14.20;79.10;;;;;;4892801;29;20037;-90
2023/04/01 12:13:08;;;;;;;2.15;1.80;;;14.20;79.10;;;;;;4891560;29;20489;-90
2023/04/01 12:16:09;;;;;;;2.45;1.92;;;14.30;79.20;;;;;;4895596;29;20031;-93
2023/04/01 12:18:59;;;;;;;2.50;1.98;;;14.30;79.20;;;;;;4891589;29;20044;-90
2023/04/01 12:21:59;;;;;;;2.47;1.70;;;14.30;79.10;;;;;;4911381;29;20032;-86
2023/04/01 12:25:04;;;;;;;2.47;1.80;;;14.30;79.10;;;;;;4904684;29;20123;-84
2023/04/01 12:28:08;;;;;;;1.50;1.40;;;14.30;79.10;;;;;;4886520;29;20114;-85
2023/04/01 12:30:53;;;;;;;1.88;1.55;;;14.40;79.20;;;;;;4897587;29;20465;-87
2023/04/01 12:33:31;;;;;;;1.50;1.40;;;14.40;79.20;;;;;;4897963;29;20115;-88
2023/04/01 12:36:08;;;;;;;1.67;1.45;;;14.40;79.10;;;;;;4910577;29;20489;-86
2023/04/01 12:39:05;;;;;;;1.58;1.40;;;14.40;79.20;;;;;;4910289;29;20028;-86
2023/04/01 12:41:56;;;;;;;1.52;1.40;;;14.40;79.20;;;;;;4915751;29;20096;-86
2023/04/01 12:44:42;;;;;;;1.80;1.58;;;14.40;79.20;;;;;;4917065;29;20118;-87
2023/04/01 12:47:29;;;;;;;1.88;1.67;;;14.40;79.20;;;;;;4885856;29;20048;-86
2023/04/01 12:50:31;;;;;;;1.50;1.40;;;14.40;79.20;;;;;;4906113;29;20392;-86
2023/04/01 12:53:04;;;;;;;1.50;1.40;;;14.40;79.20;;;;;;4888863;29;20051;-87
2023/04/01 12:55:44;;;;;;;2.13;1.50;;;14.40;79.20;;;;;;4885890;29;20028;-89
2023/04/01 12:58:32;;;;;;;1.75;1.55;;;14.40;79.30;;;;;;4900798;29;20028;-88
2023/04/01 13:01:33;;;;;;;1.40;1.30;;;14.40;79.30;;;;;;4914025;29;20036;-89
2023/04/01 13:04:20;;;;;;;2.22;1.55;;;14.40;79.30;;;;;;4883826;29;20512;-88
2023/04/01 13:07:18;;;;;;;2.28;1.70;;;14.40;79.30;;;;;;4913391;29;20032;-88
2023/04/01 13:10:06;;;;;;;2.38;1.70;;;14.40;79.30;;;;;;4887746;29;20108;-88
2023/04/01 13:12:47;;;;;;;1.40;1.30;;;14.40;79.30;;;;;;4898185;29;20127;-87
2023/04/01 13:15:46;;;;;;;1.77;1.42;;;14.40;79.30;;;;;;4900646;29;20036;-88
2023/04/01 13:18:37;;;;;;;1.40;1.30;;;14.40;79.40;;;;;;4880918;29;20349;-89
2023/04/01 13:21:31;;;;;;;1.60;1.30;;;14.40;79.40;;;;;;4884713;29;20031;-87
2023/04/01 13:24:38;;;;;;;1.40;1.30;;;14.40;80.00;;;;;;4898375;29;20028;-89
2023/04/01 13:27:19;;;;;;;1.98;1.45;;;14.40;79.40;;;;;;4895670;29;20032;-84
2023/04/01 13:30:09;;;;;;;1.50;1.38;;;14.40;79.30;;;;;;4900661;29;20115;-82
2023/04/01 13:32:59;;;;;;;1.40;1.30;;;14.40;79.40;;;;;;4896311;29;20039;-84
2023/04/01 13:35:51;;;;;;;1.58;1.48;;;14.40;79.40;;;;;;4889869;29;20043;-84
2023/04/01 13:38:24;;;;;;;1.80;1.40;;;14.40;79.30;;;;;;4915425;29;20032;-86
2023/04/01 13:41:09;;;;;;;1.40;1.30;;;14.40;79.30;;;;;;4902151;29;20024;-86
2023/04/01 13:43:39;;;;;;;1.63;1.38;;;14.50;79.40;;;;;;4898773;29;20127;-86
2023/04/01 13:46:20;;;;;;;1.42;1.33;;;14.40;79.30;;;;;;4900501;29;20028;-83
2023/04/01 13:48:51;;;;;;;1.90;1.50;;;14.50;79.40;;;;;;4899682;29;20462;-84
2023/04/01 13:51:23;;;;;;;1.70;1.50;;;14.50;79.30;;;;;;4883447;29;20032;-83
2023/04/01 13:54:40;;;;;;;1.80;1.67;;;14.50;79.30;;;;;;4915415;29;20485;-85
2023/04/01 13:57:18;;;;;;;1.45;1.35;;;14.50;79.30;;;;;;4862056;29;20493;-84